createdAt,value
2023-04-10T00:01:42.044Z,6.57
2023-04-10T00:04:10.085Z,4.88
2023-04-10T00:06:37.586Z,6.95
2023-04-10T00:09:04.879Z,5.50
2023-04-10T00:11:32.212Z,5.95
2023-04-10T00:13:59.565Z,7.05
2023-04-10T00:16:27.186Z,7.85
2023-04-10T00:18:54.591Z,7.65
2023-04-10T00:21:22.341Z,12.20
2023-04-10T00:23:49.706Z,8.48
2023-04-10T00:26:17.241Z,7.13
2023-04-10T00:28:44.745Z,4.85
2023-04-10T00:31:12.132Z,6.32
2023-04-10T00:33:39.564Z,8.35
2023-04-10T00:36:07.408Z,4.75
2023-04-10T00:38:35.417Z,8.10
2023-04-10T00:41:02.879Z,11.13
2023-04-10T00:43:31.469Z,7.38
2023-04-10T00:45:59.252Z,8.27
2023-04-10T00:48:27.229Z,7.80
2023-04-10T00:50:54.892Z,8.18
2023-04-10T00:53:22.272Z,5.15
2023-04-10T00:55:51.880Z,6.45
2023-04-10T00:58:20.390Z,8.13
2023-04-10T01:00:48.534Z,7.65
2023-04-10T01:03:18.454Z,7.00
2023-04-10T01:05:58.232Z,5.72
2023-04-10T01:08:36.627Z,6.00
2023-04-10T01:11:30.851Z,7.40
2023-04-10T01:14:35.330Z,7.67
2023-04-10T01:17:11.973Z,7.30
2023-04-10T01:20:10.411Z,3.93
2023-04-10T01:23:19.272Z,4.90
2023-04-10T01:26:05.171Z,7.57
2023-04-10T01:28:54.653Z,7.63
2023-04-10T01:31:32.323Z,5.90
2023-04-10T01:34:11.829Z,7.23
2023-04-10T01:36:52.242Z,6.77
2023-04-10T01:39:21.376Z,6.57
2023-04-10T01:41:52.922Z,5.03
2023-04-10T01:44:27.476Z,8.52
2023-04-10T01:46:56.582Z,5.77
2023-04-10T01:49:27.403Z,5.32
2023-04-10T01:52:00.012Z,5.50
2023-04-10T01:54:28.958Z,6.40
2023-04-10T01:56:57.210Z,8.20
2023-04-10T01:59:24.711Z,7.50
2023-04-10T02:01:59.141Z,8.40
2023-04-10T02:04:27.834Z,6.73
2023-04-10T02:06:55.659Z,8.90
2023-04-10T02:09:31.485Z,5.90
2023-04-10T02:12:09.480Z,6.77
2023-04-10T02:14:40.099Z,6.90
2023-04-10T02:17:09.807Z,8.87
2023-04-10T02:19:38.823Z,6.93
2023-04-10T02:22:06.848Z,6.73
2023-04-10T02:24:35.947Z,6.83
2023-04-10T02:27:03.708Z,9.47
2023-04-10T02:29:31.165Z,7.03
2023-04-10T02:31:58.529Z,9.37
2023-04-10T02:34:26.167Z,8.57
2023-04-10T02:36:54.113Z,6.97
2023-04-10T02:39:21.578Z,8.90
2023-04-10T02:41:49.098Z,9.30
2023-04-10T02:44:16.559Z,6.67
2023-04-10T02:46:43.941Z,7.43
2023-04-10T02:49:11.309Z,8.53
2023-04-10T02:51:38.596Z,4.40
2023-04-10T02:54:06.023Z,7.60
2023-04-10T02:56:36.461Z,6.33
2023-04-10T02:59:03.849Z,6.73
2023-04-10T03:01:32.221Z,9.67
2023-04-10T03:03:59.998Z,10.93
2023-04-10T03:06:27.581Z,7.30
2023-04-10T03:08:55.084Z,7.53
2023-04-10T03:11:22.554Z,7.97
2023-04-10T03:13:50.204Z,4.20
2023-04-10T03:16:20.970Z,6.83
2023-04-10T03:18:48.338Z,9.70
2023-04-10T03:21:16.301Z,7.67
2023-04-10T03:23:43.717Z,6.33
2023-04-10T03:26:12.019Z,7.13
2023-04-10T03:28:39.929Z,5.70
2023-04-10T03:31:07.490Z,5.83
2023-04-10T03:33:34.972Z,7.03
2023-04-10T03:36:04.858Z,7.23
2023-04-10T03:38:32.238Z,6.10
2023-04-10T03:40:59.565Z,6.77
2023-04-10T03:43:26.980Z,5.83
2023-04-10T03:45:54.344Z,6.83
2023-04-10T03:48:21.700Z,5.73
2023-04-10T03:50:49.084Z,6.47
2023-04-10T03:53:17.248Z,4.87
2023-04-10T03:55:45.077Z,7.07
2023-04-10T03:58:13.275Z,5.03
2023-04-10T04:00:40.922Z,7.87
2023-04-10T04:03:08.496Z,4.63
2023-04-10T04:05:36.298Z,6.30
2023-04-10T04:08:06.964Z,9.30
2023-04-10T04:10:34.503Z,5.37
2023-04-10T04:13:01.987Z,8.30
2023-04-10T04:15:29.466Z,6.67
2023-04-10T04:17:57.903Z,4.33
2023-04-10T04:20:25.608Z,9.20
2023-04-10T04:22:53.596Z,4.30
2023-04-10T04:25:20.949Z,7.77
2023-04-10T04:27:48.251Z,6.20
2023-04-10T04:30:15.579Z,7.67
2023-04-10T04:32:42.900Z,4.30
2023-04-10T04:35:10.923Z,9.23
2023-04-10T04:37:38.379Z,4.70
2023-04-10T04:40:06.394Z,6.13
2023-04-10T04:42:33.706Z,7.83
2023-04-10T04:45:01.486Z,10.07
2023-04-10T04:47:28.847Z,7.23
2023-04-10T04:49:56.262Z,4.67
2023-04-10T04:52:23.940Z,5.37
2023-04-10T04:54:51.304Z,8.80
2023-04-10T04:57:18.647Z,6.70
2023-04-10T04:59:45.933Z,10.73
2023-04-10T05:02:13.293Z,7.27
2023-04-10T05:04:40.902Z,4.77
2023-04-10T05:07:08.241Z,6.00
2023-04-10T05:09:35.533Z,4.60
2023-04-10T05:12:03.995Z,12.50
2023-04-10T05:14:31.875Z,5.47
2023-04-10T05:17:01.109Z,9.20
2023-04-10T05:19:30.401Z,7.73
2023-04-10T05:21:57.725Z,9.50
2023-04-10T05:24:25.533Z,6.90
2023-04-10T05:26:53.031Z,6.30
2023-04-10T05:29:20.440Z,4.93
2023-04-10T05:31:48.746Z,7.77
2023-04-10T05:34:16.458Z,10.73
2023-04-10T05:36:44.001Z,9.00
2023-04-10T05:39:11.324Z,6.63
2023-04-10T05:41:38.652Z,7.67
2023-04-10T05:44:06.037Z,8.93
2023-04-10T05:46:33.480Z,7.10
2023-04-10T05:49:00.936Z,6.20
2023-04-10T05:51:28.885Z,10.47
2023-04-10T05:53:56.327Z,5.65
2023-04-10T05:56:23.856Z,7.82
2023-04-10T05:58:51.236Z,8.70
2023-04-10T06:01:18.752Z,13.75
2023-04-10T06:03:46.519Z,9.57
2023-04-10T06:06:14.343Z,7.28
2023-04-10T06:08:41.727Z,7.68
2023-04-10T06:11:09.292Z,9.52
2023-04-10T06:13:36.821Z,6.07
2023-04-10T06:16:04.756Z,8.50
2023-04-10T06:18:32.486Z,7.20
2023-04-10T06:21:02.238Z,6.32
2023-04-10T06:23:29.756Z,7.28
2023-04-10T06:25:57.272Z,8.63
2023-04-10T06:28:24.755Z,9.32
2023-04-10T06:30:52.363Z,7.20
2023-04-10T06:33:19.734Z,7.60
2023-04-10T06:35:47.098Z,7.20
2023-04-10T06:38:14.478Z,5.32
2023-04-10T06:40:42.070Z,7.40
2023-04-10T06:43:09.384Z,5.88
2023-04-10T06:45:36.720Z,9.00
2023-04-10T06:48:04.890Z,6.00
2023-04-10T06:50:33.442Z,4.93
2023-04-10T06:53:01.327Z,4.53
2023-04-10T06:55:30.055Z,8.07
2023-04-10T06:57:57.553Z,7.55
2023-04-10T07:00:25.762Z,10.13
2023-04-10T07:02:53.159Z,4.80
2023-04-10T07:05:21.111Z,8.32
2023-04-10T07:07:50.669Z,4.85
2023-04-10T07:10:18.033Z,6.75
2023-04-10T07:12:45.665Z,6.10
2023-04-10T07:15:12.984Z,3.92
2023-04-10T07:17:40.498Z,4.43
2023-04-10T07:20:08.332Z,7.70
2023-04-10T07:22:35.886Z,4.13
2023-04-10T07:25:03.466Z,5.65
2023-04-10T07:27:30.942Z,6.88
2023-04-10T07:29:58.243Z,5.90
2023-04-10T07:32:25.836Z,5.45
2023-04-10T07:34:53.411Z,6.88
2023-04-10T07:37:21.137Z,4.40
2023-04-10T07:39:48.484Z,4.65
2023-04-10T07:42:15.984Z,4.90
2023-04-10T07:44:43.442Z,3.47
2023-04-10T07:47:11.508Z,5.47
2023-04-10T07:49:38.947Z,5.47
2023-04-10T07:52:06.398Z,2.58
2023-04-10T07:54:34.430Z,2.53
2023-04-10T07:57:01.852Z,3.33
2023-04-10T07:59:29.411Z,3.50
2023-04-10T08:01:57.335Z,3.42
2023-04-10T08:04:25.212Z,4.70
2023-04-10T08:06:52.816Z,2.40
2023-04-10T08:09:20.336Z,3.25
2023-04-10T08:11:47.961Z,3.50
2023-04-10T08:14:18.507Z,3.97
2023-04-10T08:16:46.029Z,1.95
2023-04-10T08:19:13.526Z,2.40
2023-04-10T08:21:41.052Z,3.00
2023-04-10T08:24:08.519Z,6.30
2023-04-10T08:26:36.276Z,4.90
2023-04-10T08:29:03.685Z,4.05
2023-04-10T08:31:32.338Z,4.20
2023-04-10T08:34:00.298Z,3.58
2023-04-10T08:36:28.588Z,3.00
2023-04-10T08:38:56.052Z,3.88
2023-04-10T08:41:23.403Z,2.65
2023-04-10T08:43:51.412Z,3.47
2023-04-10T08:46:18.949Z,2.58
2023-04-10T08:48:59.046Z,2.85
2023-04-10T08:51:32.518Z,4.13
2023-04-10T08:54:08.226Z,3.38
2023-04-10T08:56:37.870Z,4.25
2023-04-10T08:59:05.877Z,3.38
2023-04-10T09:01:34.981Z,4.93
2023-04-10T09:04:02.782Z,3.35
2023-04-10T09:06:31.596Z,5.88
2023-04-10T09:11:56.924Z,4.50
2023-04-10T09:14:35.198Z,4.97
2023-04-10T09:17:24.652Z,3.83
2023-04-10T09:19:56.311Z,2.60
2023-04-10T09:22:32.490Z,3.08
2023-04-10T09:25:00.999Z,3.47
2023-04-10T09:27:35.253Z,4.57
2023-04-10T09:30:03.859Z,4.32
2023-04-10T09:32:45.450Z,5.07
2023-04-10T09:35:14.819Z,3.40
2023-04-10T09:37:47.121Z,5.90
2023-04-10T09:40:25.510Z,3.63
2023-04-10T09:42:56.208Z,3.88
2023-04-10T09:45:23.609Z,3.70
2023-04-10T09:48:05.369Z,2.58
2023-04-10T09:50:40.275Z,4.50
2023-04-10T09:53:13.452Z,4.22
2023-04-10T09:55:42.417Z,2.83
2023-04-10T09:58:10.705Z,6.25
2023-04-10T10:00:43.117Z,4.40
2023-04-10T10:03:13.546Z,4.13
2023-04-10T10:05:43.851Z,4.72
2023-04-10T10:08:12.852Z,3.72
2023-04-10T10:10:59.934Z,3.70
2023-04-10T10:13:44.606Z,4.80
2023-04-10T10:16:15.359Z,6.68
2023-04-10T10:18:55.368Z,4.38
2023-04-10T10:21:24.508Z,4.50
2023-04-10T10:23:54.940Z,2.63
2023-04-10T10:26:23.835Z,5.55
2023-04-10T10:28:55.864Z,12.98
2023-04-10T10:31:24.603Z,9.38
2023-04-10T10:33:53.192Z,6.55
2023-04-10T10:36:21.816Z,5.32
2023-04-10T10:38:59.293Z,8.43
2023-04-10T10:41:33.921Z,7.25
2023-04-10T10:44:14.825Z,4.95
2023-04-10T10:46:59.524Z,7.35
2023-04-10T10:49:55.648Z,12.98
2023-04-10T10:52:38.668Z,8.55
2023-04-10T10:55:24.782Z,8.82
2023-04-10T10:57:54.058Z,7.78
2023-04-10T11:00:26.691Z,9.55
2023-04-10T11:03:09.490Z,11.15
2023-04-10T11:05:58.911Z,9.18
2023-04-10T11:08:43.376Z,9.30
2023-04-10T11:11:16.268Z,8.07
2023-04-10T11:14:06.546Z,4.05
2023-04-10T11:16:36.113Z,7.50
2023-04-10T11:19:14.329Z,7.65
2023-04-10T11:22:08.365Z,7.82
2023-04-10T11:24:59.469Z,5.63
2023-04-10T11:27:43.157Z,7.75
2023-04-10T11:30:30.093Z,7.93
2023-04-10T11:32:58.423Z,9.68
2023-04-10T11:35:27.830Z,5.32
2023-04-10T11:38:16.841Z,9.57
2023-04-10T11:40:58.692Z,8.40
2023-04-10T11:43:26.743Z,7.15
2023-04-10T11:46:04.684Z,6.65
2023-04-10T11:48:32.664Z,7.00
2023-04-10T11:51:06.788Z,3.88
2023-04-10T11:53:34.390Z,9.38
2023-04-10T11:56:01.927Z,9.35
2023-04-10T11:58:30.905Z,9.27
2023-04-10T12:01:03.730Z,8.07
2023-04-10T12:03:42.267Z,8.68
2023-04-10T12:06:14.652Z,8.35
2023-04-10T12:08:46.448Z,7.55
2023-04-10T12:11:14.559Z,8.55
2023-04-10T12:13:41.913Z,10.95
2023-04-10T12:16:10.870Z,9.25
2023-04-10T12:18:38.945Z,6.25
2023-04-10T12:21:08.505Z,5.60
2023-04-10T12:23:39.181Z,7.03
2023-04-10T12:26:10.978Z,10.30
2023-04-10T12:28:39.775Z,5.88
2023-04-10T12:31:07.786Z,8.18
2023-04-10T12:33:35.378Z,7.78
2023-04-10T12:36:03.012Z,5.63
2023-04-10T12:38:44.088Z,5.10
2023-04-10T12:41:12.462Z,9.30
2023-04-10T12:43:44.943Z,8.27
2023-04-10T12:46:26.372Z,4.45
2023-04-10T12:48:55.336Z,6.97
2023-04-10T12:51:42.313Z,8.65
2023-04-10T12:54:09.934Z,8.40
2023-04-10T12:56:44.648Z,9.20
2023-04-10T12:59:12.747Z,6.65
2023-04-10T13:01:40.603Z,7.18
2023-04-10T13:04:08.305Z,9.15
2023-04-10T13:06:44.325Z,6.10
2023-04-10T13:09:13.710Z,6.47
2023-04-10T13:11:42.127Z,7.13
2023-04-10T13:14:09.771Z,8.43
2023-04-10T13:16:38.186Z,10.75
2023-04-10T13:19:05.795Z,7.63
2023-04-10T13:21:33.206Z,13.02
2023-04-10T13:24:00.709Z,11.75
2023-04-10T13:26:28.247Z,11.40
2023-04-10T13:28:56.035Z,8.32
2023-04-10T13:31:23.926Z,7.65
2023-04-10T13:33:51.424Z,4.18
2023-04-10T13:36:18.987Z,10.65
2023-04-10T13:38:46.524Z,6.53
2023-04-10T13:41:13.804Z,5.85
2023-04-10T13:43:41.093Z,7.57
2023-04-10T13:46:08.563Z,8.02
2023-04-10T13:48:41.426Z,8.35
2023-04-10T13:51:09.422Z,6.32
2023-04-10T13:53:36.763Z,3.78
2023-04-10T13:56:04.335Z,11.77
2023-04-10T13:58:34.506Z,4.32
2023-04-10T14:01:02.316Z,6.75
2023-04-10T14:03:29.774Z,7.32
2023-04-10T14:05:57.256Z,6.05
2023-04-10T14:08:24.666Z,6.93
2023-04-10T14:10:52.012Z,10.05
2023-04-10T14:13:19.505Z,9.75
2023-04-10T14:15:47.168Z,6.72
2023-04-10T14:18:17.687Z,8.93
2023-04-10T14:20:45.022Z,4.25
2023-04-10T14:23:18.560Z,5.18
2023-04-10T14:25:46.573Z,7.65
2023-04-10T14:28:17.971Z,4.10
2023-04-10T14:30:50.929Z,10.05
2023-04-10T14:33:20.174Z,4.18
2023-04-10T14:35:48.373Z,6.95
2023-04-10T14:38:16.131Z,5.65
2023-04-10T14:40:45.833Z,7.47
2023-04-10T14:43:13.271Z,10.43
2023-04-10T14:45:40.641Z,11.02
2023-04-10T14:48:08.140Z,5.25
2023-04-10T14:50:35.665Z,6.53
2023-04-10T14:53:03.114Z,5.85
2023-04-10T14:55:30.643Z,6.82
2023-04-10T14:57:58.896Z,5.75
2023-04-10T15:00:27.004Z,6.68
2023-04-10T15:02:54.712Z,8.20
2023-04-10T15:05:23.228Z,13.02
2023-04-10T15:07:50.676Z,11.10
2023-04-10T15:10:18.316Z,5.03
2023-04-10T15:12:45.822Z,4.43
2023-04-10T15:15:13.303Z,5.57
2023-04-10T15:17:43.820Z,6.07
2023-04-10T15:20:11.825Z,10.57
2023-04-10T15:22:40.486Z,8.77
2023-04-10T15:25:09.765Z,3.90
2023-04-10T15:27:37.250Z,10.63
2023-04-10T15:30:05.735Z,12.23
2023-04-10T15:32:33.413Z,10.85
2023-04-10T15:35:00.848Z,3.42
2023-04-10T15:37:28.575Z,6.85
2023-04-10T15:39:55.974Z,9.57
2023-04-10T15:42:23.452Z,9.65
2023-04-10T15:44:50.929Z,10.18
2023-04-10T15:47:18.292Z,9.27
2023-04-10T15:49:45.757Z,4.47
2023-04-10T15:52:13.082Z,4.00
2023-04-10T15:54:40.826Z,9.80
2023-04-10T15:57:08.327Z,6.78
2023-04-10T15:59:36.800Z,6.65
2023-04-10T16:02:04.353Z,5.55
2023-04-10T16:04:32.145Z,6.70
2023-04-10T16:06:59.751Z,3.42
2023-04-10T16:09:27.443Z,4.80
2023-04-10T16:11:56.322Z,4.50
2023-04-10T16:14:23.802Z,5.07
2023-04-10T16:16:51.946Z,13.40
2023-04-10T16:19:19.680Z,5.03
2023-04-10T16:21:47.036Z,9.55
2023-04-10T16:24:14.503Z,5.85
2023-04-10T16:26:41.753Z,6.78
2023-04-10T16:29:09.264Z,5.82
2023-04-10T16:31:37.101Z,9.60
2023-04-10T16:34:04.699Z,4.15
2023-04-10T16:36:32.371Z,5.75
2023-04-10T16:38:59.746Z,5.78
2023-04-10T16:41:27.105Z,12.65
2023-04-10T16:43:54.625Z,8.57
2023-04-10T16:46:22.290Z,8.82
2023-04-10T16:48:49.759Z,12.50
2023-04-10T16:51:18.514Z,10.32
2023-04-10T16:53:45.854Z,14.00
2023-04-10T16:56:13.185Z,10.68
2023-04-10T16:58:42.149Z,6.60
2023-04-10T17:01:25.412Z,9.23
2023-04-10T17:03:53.613Z,8.82
2023-04-10T17:06:21.275Z,5.53
2023-04-10T17:08:48.750Z,10.82
2023-04-10T17:11:16.600Z,15.43
2023-04-10T17:13:46.177Z,9.32
2023-04-10T17:16:14.386Z,13.45
2023-04-10T17:18:42.476Z,7.15
2023-04-10T17:21:13.553Z,11.05
2023-04-10T17:23:41.844Z,12.35
2023-04-10T17:26:14.100Z,6.65
2023-04-10T17:28:45.096Z,11.07
2023-04-10T17:31:13.836Z,14.95
2023-04-10T17:33:44.323Z,21.35
2023-04-10T17:36:12.890Z,14.65
2023-04-10T17:38:41.477Z,14.23
2023-04-10T17:41:10.253Z,11.85
2023-04-10T17:43:37.850Z,13.02
2023-04-10T17:46:05.553Z,19.50
2023-04-10T17:48:34.415Z,16.98
2023-04-10T17:51:08.570Z,18.10
2023-04-10T17:53:36.303Z,13.98
2023-04-10T17:56:04.762Z,14.75
2023-04-10T17:58:32.111Z,15.73
2023-04-10T18:00:59.480Z,15.23
2023-04-10T18:03:27.045Z,22.25
2023-04-10T18:05:54.611Z,26.73
2023-04-10T18:08:22.079Z,29.55
2023-04-10T18:10:49.671Z,30.73
2023-04-10T18:13:17.067Z,27.70
2023-04-10T18:15:44.467Z,45.85
2023-04-10T18:18:12.152Z,26.63
2023-04-10T18:20:39.534Z,46.63
2023-04-10T18:23:07.111Z,28.85
2023-04-10T18:25:34.745Z,22.88
2023-04-10T18:28:13.179Z,18.15
2023-04-10T18:30:41.591Z,13.00
2023-04-10T18:33:11.072Z,24.58
2023-04-10T18:35:39.089Z,17.88
2023-04-10T18:38:07.190Z,15.90
2023-04-10T18:40:36.950Z,22.83
2023-04-10T18:43:04.393Z,20.80
2023-04-10T18:45:34.414Z,14.52
2023-04-10T18:48:02.278Z,15.88
2023-04-10T18:50:30.681Z,19.98
2023-04-10T18:52:58.098Z,19.85
2023-04-10T18:55:25.587Z,13.88
2023-04-10T18:57:53.055Z,14.88
2023-04-10T19:00:20.703Z,10.48
2023-04-10T19:02:51.206Z,9.35
2023-04-10T19:05:18.670Z,9.25
2023-04-10T19:07:56.707Z,10.10
2023-04-10T19:10:30.864Z,9.15
2023-04-10T19:12:58.162Z,13.75
2023-04-10T19:15:25.694Z,10.48
2023-04-10T19:17:54.573Z,15.95
2023-04-10T19:20:50.441Z,15.57
2023-04-10T19:23:09.826Z,20.52
2023-04-10T19:25:37.226Z,16.42
2023-04-10T19:28:04.900Z,17.63
2023-04-10T19:30:32.308Z,18.75
2023-04-10T19:32:59.810Z,20.23
2023-04-10T19:35:27.438Z,16.80
2023-04-10T19:37:58.391Z,13.13
2023-04-10T19:40:25.931Z,10.68
2023-04-10T19:42:53.587Z,9.23
2023-04-10T19:45:22.555Z,9.38
2023-04-10T19:47:53.562Z,10.27
2023-04-10T19:50:21.264Z,8.95
2023-04-10T19:52:48.902Z,8.70
2023-04-10T19:55:18.813Z,15.30
2023-04-10T19:57:49.369Z,5.72
2023-04-10T20:00:16.982Z,9.98
2023-04-10T20:02:44.567Z,11.43
2023-04-10T20:05:12.389Z,8.95
2023-04-10T20:07:40.014Z,11.82
2023-04-10T20:10:08.180Z,10.38
2023-04-10T20:12:35.879Z,7.50
2023-04-10T20:15:04.413Z,9.35
2023-04-10T20:17:32.145Z,7.55
2023-04-10T20:19:59.594Z,10.32
2023-04-10T20:22:27.199Z,6.80
2023-04-10T20:24:54.702Z,8.75
2023-04-10T20:27:22.128Z,7.05
2023-04-10T20:29:50.478Z,9.02
2023-04-10T20:32:18.104Z,8.32
2023-04-10T20:34:45.784Z,6.78
2023-04-10T20:37:17.307Z,7.22
2023-04-10T20:39:45.036Z,6.57
2023-04-10T20:42:12.540Z,10.02
2023-04-10T20:44:39.993Z,12.13
2023-04-10T20:47:07.469Z,15.00
2023-04-10T20:49:37.619Z,16.20
2023-04-10T20:52:07.269Z,14.63
2023-04-10T20:54:35.039Z,8.73
2023-04-10T20:57:02.430Z,15.82
2023-04-10T20:59:29.970Z,18.00
2023-04-10T21:01:58.533Z,18.48
2023-04-10T21:04:26.291Z,13.95
2023-04-10T21:06:53.754Z,12.02
2023-04-10T21:09:21.271Z,16.73
2023-04-10T21:11:48.563Z,15.40
2023-04-10T21:14:15.914Z,11.60
2023-04-10T21:16:43.873Z,11.00
2023-04-10T21:19:11.796Z,19.25
2023-04-10T21:21:39.294Z,19.85
2023-04-10T21:24:06.642Z,15.82
2023-04-10T21:26:34.107Z,17.85
2023-04-10T21:29:01.618Z,15.55
2023-04-10T21:31:29.109Z,14.13
2023-04-10T21:33:56.524Z,16.98
2023-04-10T21:36:23.865Z,13.75
2023-04-10T21:38:51.205Z,13.43
2023-04-10T21:41:18.631Z,16.33
2023-04-10T21:43:46.115Z,13.82
2023-04-10T21:46:13.654Z,10.75
2023-04-10T21:48:41.817Z,16.95
2023-04-10T21:51:09.288Z,12.60
2023-04-10T21:53:36.797Z,16.85
2023-04-10T21:56:04.383Z,14.90
2023-04-10T21:58:32.504Z,16.35
2023-04-10T22:01:01.042Z,16.40
2023-04-10T22:03:28.721Z,20.05
2023-04-10T22:05:57.305Z,14.02
2023-04-10T22:08:24.695Z,8.75
2023-04-10T22:10:52.447Z,13.40
2023-04-10T22:13:30.263Z,15.00
2023-04-10T22:16:00.092Z,14.75
2023-04-10T22:18:27.931Z,10.20
2023-04-10T22:20:55.672Z,19.63
2023-04-10T22:23:24.442Z,13.43
2023-04-10T22:25:51.923Z,13.73
2023-04-10T22:28:19.322Z,14.68
2023-04-10T22:30:46.812Z,14.20
2023-04-10T22:33:14.253Z,11.40
2023-04-10T22:35:41.607Z,13.10
2023-04-10T22:38:09.292Z,13.18
2023-04-10T22:40:36.779Z,9.57
2023-04-10T22:43:04.114Z,8.93
2023-04-10T22:45:31.428Z,9.23
2023-04-10T22:47:58.921Z,8.20
2023-04-10T22:50:26.412Z,10.07
2023-04-10T22:52:53.932Z,7.23
2023-04-10T22:55:21.304Z,10.10
2023-04-10T22:57:49.628Z,11.70
2023-04-10T23:00:17.247Z,16.37
2023-04-10T23:02:44.745Z,10.47
2023-04-10T23:05:12.161Z,10.80
2023-04-10T23:07:39.594Z,10.77
2023-04-10T23:10:08.395Z,15.77
2023-04-10T23:12:36.049Z,7.80
2023-04-10T23:15:06.050Z,16.50
2023-04-10T23:17:33.750Z,10.03
2023-04-10T23:20:01.296Z,15.20
2023-04-10T23:22:29.994Z,9.60
2023-04-10T23:24:57.964Z,8.63
2023-04-10T23:27:25.353Z,9.40
2023-04-10T23:29:52.742Z,7.63
2023-04-10T23:32:20.112Z,7.70
2023-04-10T23:34:47.470Z,6.70
2023-04-10T23:37:14.938Z,8.63
2023-04-10T23:39:42.330Z,4.97
2023-04-10T23:42:09.751Z,6.83
2023-04-10T23:44:37.204Z,1.50
2023-04-10T23:47:04.629Z,7.07
2023-04-10T23:49:32.362Z,6.97
2023-04-10T23:51:59.660Z,4.73
2023-04-10T23:54:27.286Z,9.50
2023-04-10T23:56:54.691Z,12.57
2023-04-10T23:59:21.985Z,8.83
